Star Flyer — 9HA2512 — position and weather

sailwx.info

Track history (hours):
 
Tides and Currents Weather Stations Pressure Air Temp Water Temp Dewpoint Dewpoint Depression Visibility Wind Speed Wind Dir Waves Ship Positions

Star Flyer

Last reported at 2020-Jul-08 17:30 UTC. Time now 2020-Jul-09 05:19 UTC.
Position N 37°38' E 023°47'.

Length 112 m; draft 5.8 m.

Type: Ship. MMSI: 248785000.

Date/timePositionNaut miles runAvg speedWind from/ knotsBaromVisibWave heightAir tempDewpointWater temp
2020-Jul-08 17:30N 37°38' E 023°47'3 5.5
2020-Jul-08 17:00N 37°39' E 023°44'9 6.0
2020-Jul-08 15:30N 37°47' E 023°38'8 5.5
2020-Jul-08 14:00N 37°54' E 023°32'0 0.0
2020-Jul-08 13:30N 37°54' E 023°32'0 0.0
2020-Jul-08 13:00N 37°54' E 023°32'0 0.0
2020-Jul-08 12:27N 37°54' E 023°32'0 0.0
2020-Jul-08 11:00N 37°54' E 023°32'18 3.2
2020-Jul-08 05:30N 37°40' E 023°46'53 5.9
2020-Jul-07 20:30N 37°20' E 024°48'8 3.8
2020-Jul-07 18:30N 37°16' E 024°56'0 0.0
2020-Jul-07 15:58N 37°16' E 024°56'0 0.0
2020-Jul-07 14:58N 37°16' E 024°56'0 0.0
2020-Jul-07 13:58N 37°16' E 024°56'0 0.0
2020-Jul-07 12:58N 37°16' E 024°56'0 0.0
2020-Jul-07 11:25N 37°16' E 024°56'0 0.0
2020-Jul-07 10:58N 37°16' E 024°56'0 0.0
2020-Jul-07 07:28N 37°16' E 024°56'0 0.0
2020-Jul-07 05:28N 37°16' E 024°56'0 0.0
2020-Jul-07 04:56N 37°16' E 024°56'0 0.0
2020-Jul-07 03:29N 37°16' E 024°56'0 0.0
2020-Jul-07 02:56N 37°16' E 024°56'0 0.0
2020-Jul-06 23:59N 37°16' E 024°56'0 0.0
2020-Jul-06 22:29N 37°16' E 024°56'0 0.0
2020-Jul-06 18:57N 37°16' E 024°56'0 0.0
2020-Jul-06 18:29N 37°16' E 024°56'0 0.0
2020-Jul-06 17:21N 37°16' E 024°56'0 0.0
2020-Jul-06 16:59N 37°16' E 024°56'0 0.0
2020-Jul-06 11:57N 37°16' E 024°56'0 0.0
2020-Jul-06 10:55N 37°16' E 024°56'0 0.0
2020-Jul-06 09:57N 37°16' E 024°56'0 0.0
2020-Jul-06 09:27N 37°16' E 024°56'0 0.0
2020-Jul-06 08:25N 37°16' E 024°56'0 0.1
2020-Jul-06 07:57N 37°16' E 024°56'0 0.0
2020-Jul-06 04:27N 37°16' E 024°56'0 0.0
2020-Jul-06 02:57N 37°16' E 024°56'0 0.0
2020-Jul-06 02:21N 37°16' E 024°56'0 0.0
2020-Jul-06 01:27N 37°16' E 024°56'0 0.0
2020-Jul-05 21:55N 37°16' E 024°56'0 0.0
2020-Jul-05 19:57N 37°16' E 024°56'0 0.0
2020-Jul-05 15:57N 37°16' E 024°56'0 0.0
2020-Jul-05 15:27N 37°16' E 024°56'0 0.0
2020-Jul-05 12:27N 37°16' E 024°56'0 0.0
2020-Jul-05 10:25N 37°16' E 024°56'0 0.0
2020-Jul-05 05:27N 37°16' E 024°56'0 0.0
2020-Jul-05 03:55N 37°16' E 024°56'0 0.0
2020-Jul-05 02:57N 37°16' E 024°56'0 0.0
2020-Jul-05 01:57N 37°16' E 024°56'0 0.0
2020-Jul-04 22:25N 37°16' E 024°56'0 0.0
2020-Jul-04 19:55N 37°16' E 024°56'0 0.0
2020-Jul-04 19:27N 37°16' E 024°56'0 0.0
2020-Jul-04 18:27N 37°16' E 024°56'0 0.0
2020-Jul-04 12:27N 37°16' E 024°56'0 0.0
2020-Jul-04 11:27N 37°16' E 024°56'0 0.0
2020-Jul-04 02:59N 37°16' E 024°56'0 0.0
2020-Jul-04 01:59N 37°16' E 024°56'0 0.0
2020-Jul-03 21:29N 37°16' E 024°56'0 0.0
2020-Jul-03 20:59N 37°16' E 024°56'0 0.0
2020-Jul-03 17:55N 37°16' E 024°56'0 0.0
2020-Jul-03 16:29N 37°16' E 024°56'0 0.0
2020-Jul-03 15:55N 37°16' E 024°56'0 0.0
2020-Jul-03 15:25N 37°16' E 024°56'0 0.0
2020-Jul-03 14:29N 37°16' E 024°56'0 0.0
2020-Jul-03 13:59N 37°16' E 024°56'0 0.0
2020-Jul-03 13:31N 37°16' E 024°56'0 0.0
2020-Jul-03 10:29N 37°16' E 024°56'0 0.1
2020-Jul-03 09:59N 37°16' E 024°56'0 0.1
2020-Jul-03 09:25N 37°16' E 024°56'0 0.1
2020-Jul-03 08:59N 37°16' E 024°56'0 0.0
2020-Jul-03 08:17N 37°16' E 024°56'0 0.0
2020-Jul-03 06:19N 37°16' E 024°56'0 0.0
2020-Jul-03 03:53N 37°16' E 024°56'0 0.0
2020-Jul-03 02:59N 37°16' E 024°56'0 0.0
2020-Jul-03 02:29N 37°16' E 024°56'0 0.0
2020-Jul-02 20:29N 37°16' E 024°56'0 0.0
2020-Jul-02 19:29N 37°16' E 024°56'0 0.0
2020-Jul-02 18:29N 37°16' E 024°56'0 0.0
2020-Jul-02 15:59N 37°16' E 024°56'0 0.0
2020-Jul-02 14:29N 37°16' E 024°56'0 0.0
2020-Jul-02 11:30N 37°16' E 024°56'0 0.0
2020-Jul-02 10:55N 37°16' E 024°56'0 0.0
2020-Jul-02 10:30N 37°16' E 024°56'0 0.0
2020-Jul-02 09:30N 37°16' E 024°56'0 0.0
2020-Jul-02 08:54N 37°16' E 024°56'0 0.0
2020-Jul-02 06:30N 37°16' E 024°56'0 0.0
2020-Jul-02 04:00N 37°16' E 024°56'0 0.0
2020-Jul-02 03:25N 37°16' E 024°56'0 0.0
2020-Jul-02 02:30N 37°16' E 024°56'0 0.0
2020-Jul-02 01:25N 37°16' E 024°56'0 0.0
2020-Jul-01 23:30N 37°16' E 024°56'0 0.0
2020-Jul-01 18:30N 37°16' E 024°56'0 0.0
2020-Jul-01 16:00N 37°16' E 024°56'0 0.0
2020-Jul-01 13:31N 37°16' E 024°56'0 0.0
2020-Jul-01 05:31N 37°16' E 024°56'0 0.0
2020-Jul-01 04:00N 37°16' E 024°56'0 0.0
2020-Jul-01 02:24N 37°16' E 024°56'0 0.0
2020-Jul-01 00:00N 37°16' E 024°56'0 0.0
2020-Jun-30 21:30N 37°16' E 024°56'0 0.0
2020-Jun-30 18:24N 37°16' E 024°56'0 0.0
2020-Jun-30 18:00N 37°16' E 024°56'0 0.0
2020-Jun-30 17:25N 37°16' E 024°56'0 0.0
2020-Jun-30 16:31N 37°16' E 024°56'0 0.0
2020-Jun-30 15:24N 37°16' E 024°56'0 0.0
2020-Jun-30 14:19N 37°16' E 024°56'0 0.0
2020-Jun-30 13:30N 37°16' E 024°56'0 0.0
2020-Jun-30 12:00N 37°16' E 024°56'0 0.0
2020-Jun-30 07:31N 37°16' E 024°56'0 0.0
2020-Jun-30 06:30N 37°16' E 024°56'0 0.0
2020-Jun-30 03:25N 37°16' E 024°56'0 0.0
2020-Jun-30 02:30N 37°16' E 024°56'0 0.0
2020-Jun-30 00:25N 37°16' E 024°56'0 0.0
2020-Jun-29 23:00N 37°16' E 024°56'0 0.0
2020-Jun-29 22:30N 37°16' E 024°56'0 0.0
2020-Jun-29 21:25N 37°16' E 024°56'0 0.0
2020-Jun-29 16:25N 37°16' E 024°56'0 0.1
2020-Jun-29 16:00N 37°16' E 024°56'0 0.0
2020-Jun-29 13:55N 37°16' E 024°56'0 0.0
2020-Jun-29 13:30N 37°16' E 024°56'0 0.0
2020-Jun-29 06:54N 37°16' E 024°56'0 0.0
2020-Jun-29 05:19N 37°16' E 024°56'0 0.0
2020-Jun-29 04:30N 37°16' E 024°56'0 0.0
2020-Jun-29 00:25N 37°16' E 024°56'0 0.0
2020-Jun-28 23:25N 37°16' E 024°56'0 0.0
2020-Jun-28 22:30N 37°16' E 024°56'0 0.0
2020-Jun-28 21:56N 37°16' E 024°56'0 0.0
2020-Jun-28 21:24N 37°16' E 024°56'0 0.0
2020-Jun-28 18:25N 37°16' E 024°56'  
Track history (hours):
 
Tides and Currents Weather Stations Pressure Air Temp Water Temp Dewpoint Dewpoint Depression Visibility Wind Speed Wind Dir Waves Ship Positions

Star Flyer

Last reported at 2020-Jul-08 17:30 UTC. Time now 2020-Jul-09 05:19 UTC.
Position N 37°38' E 023°47'.

Length 112 m; draft 5.8 m.

Type: Ship. MMSI: 248785000.

Date/timePositionNaut miles runAvg speedWind from/ knotsBaromVisibWave heightAir tempDewpointWater temp
2020-Jul-08 17:30N 37°38' E 023°47'3 5.5
2020-Jul-08 17:00N 37°39' E 023°44'9 6.0
2020-Jul-08 15:30N 37°47' E 023°38'8 5.5
2020-Jul-08 14:00N 37°54' E 023°32'0 0.0
2020-Jul-08 13:30N 37°54' E 023°32'0 0.0
2020-Jul-08 13:00N 37°54' E 023°32'0 0.0
2020-Jul-08 12:27N 37°54' E 023°32'0 0.0
2020-Jul-08 11:00N 37°54' E 023°32'18 3.2
2020-Jul-08 05:30N 37°40' E 023°46'53 5.9
2020-Jul-07 20:30N 37°20' E 024°48'8 3.8
2020-Jul-07 18:30N 37°16' E 024°56'0 0.0
2020-Jul-07 15:58N 37°16' E 024°56'0 0.0
2020-Jul-07 14:58N 37°16' E 024°56'0 0.0
2020-Jul-07 13:58N 37°16' E 024°56'0 0.0
2020-Jul-07 12:58N 37°16' E 024°56'0 0.0
2020-Jul-07 11:25N 37°16' E 024°56'0 0.0
2020-Jul-07 10:58N 37°16' E 024°56'0 0.0
2020-Jul-07 07:28N 37°16' E 024°56'0 0.0
2020-Jul-07 05:28N 37°16' E 024°56'0 0.0
2020-Jul-07 04:56N 37°16' E 024°56'0 0.0
2020-Jul-07 03:29N 37°16' E 024°56'0 0.0
2020-Jul-07 02:56N 37°16' E 024°56'0 0.0
2020-Jul-06 23:59N 37°16' E 024°56'0 0.0
2020-Jul-06 22:29N 37°16' E 024°56'0 0.0
2020-Jul-06 18:57N 37°16' E 024°56'0 0.0
2020-Jul-06 18:29N 37°16' E 024°56'0 0.0
2020-Jul-06 17:21N 37°16' E 024°56'0 0.0
2020-Jul-06 16:59N 37°16' E 024°56'0 0.0
2020-Jul-06 11:57N 37°16' E 024°56'0 0.0
2020-Jul-06 10:55N 37°16' E 024°56'0 0.0
2020-Jul-06 09:57N 37°16' E 024°56'0 0.0
2020-Jul-06 09:27N 37°16' E 024°56'0 0.0
2020-Jul-06 08:25N 37°16' E 024°56'0 0.1
2020-Jul-06 07:57N 37°16' E 024°56'0 0.0
2020-Jul-06 04:27N 37°16' E 024°56'0 0.0
2020-Jul-06 02:57N 37°16' E 024°56'0 0.0
2020-Jul-06 02:21N 37°16' E 024°56'0 0.0
2020-Jul-06 01:27N 37°16' E 024°56'0 0.0
2020-Jul-05 21:55N 37°16' E 024°56'0 0.0
2020-Jul-05 19:57N 37°16' E 024°56'0 0.0
2020-Jul-05 15:57N 37°16' E 024°56'0 0.0
2020-Jul-05 15:27N 37°16' E 024°56'0 0.0
2020-Jul-05 12:27N 37°16' E 024°56'0 0.0
2020-Jul-05 10:25N 37°16' E 024°56'0 0.0
2020-Jul-05 05:27N 37°16' E 024°56'0 0.0
2020-Jul-05 03:55N 37°16' E 024°56'0 0.0
2020-Jul-05 02:57N 37°16' E 024°56'0 0.0
2020-Jul-05 01:57N 37°16' E 024°56'0 0.0
2020-Jul-04 22:25N 37°16' E 024°56'0 0.0
2020-Jul-04 19:55N 37°16' E 024°56'0 0.0
2020-Jul-04 19:27N 37°16' E 024°56'0 0.0
2020-Jul-04 18:27N 37°16' E 024°56'0 0.0
2020-Jul-04 12:27N 37°16' E 024°56'0 0.0
2020-Jul-04 11:27N 37°16' E 024°56'0 0.0
2020-Jul-04 02:59N 37°16' E 024°56'0 0.0
2020-Jul-04 01:59N 37°16' E 024°56'0 0.0
2020-Jul-03 21:29N 37°16' E 024°56'0 0.0
2020-Jul-03 20:59N 37°16' E 024°56'0 0.0
2020-Jul-03 17:55N 37°16' E 024°56'0 0.0
2020-Jul-03 16:29N 37°16' E 024°56'0 0.0
2020-Jul-03 15:55N 37°16' E 024°56'0 0.0
2020-Jul-03 15:25N 37°16' E 024°56'0 0.0
2020-Jul-03 14:29N 37°16' E 024°56'0 0.0
2020-Jul-03 13:59N 37°16' E 024°56'0 0.0
2020-Jul-03 13:31N 37°16' E 024°56'0 0.0
2020-Jul-03 10:29N 37°16' E 024°56'0 0.1
2020-Jul-03 09:59N 37°16' E 024°56'0 0.1
2020-Jul-03 09:25N 37°16' E 024°56'0 0.1
2020-Jul-03 08:59N 37°16' E 024°56'0 0.0
2020-Jul-03 08:17N 37°16' E 024°56'0 0.0
2020-Jul-03 06:19N 37°16' E 024°56'0 0.0
2020-Jul-03 03:53N 37°16' E 024°56'0 0.0
2020-Jul-03 02:59N 37°16' E 024°56'0 0.0
2020-Jul-03 02:29N 37°16' E 024°56'0 0.0
2020-Jul-02 20:29N 37°16' E 024°56'0 0.0
2020-Jul-02 19:29N 37°16' E 024°56'0 0.0
2020-Jul-02 18:29N 37°16' E 024°56'0 0.0
2020-Jul-02 15:59N 37°16' E 024°56'0 0.0
2020-Jul-02 14:29N 37°16' E 024°56'0 0.0
2020-Jul-02 11:30N 37°16' E 024°56'0 0.0
2020-Jul-02 10:55N 37°16' E 024°56'0 0.0
2020-Jul-02 10:30N 37°16' E 024°56'0 0.0
2020-Jul-02 09:30N 37°16' E 024°56'0 0.0
2020-Jul-02 08:54N 37°16' E 024°56'0 0.0
2020-Jul-02 06:30N 37°16' E 024°56'0 0.0
2020-Jul-02 04:00N 37°16' E 024°56'0 0.0
2020-Jul-02 03:25N 37°16' E 024°56'0 0.0
2020-Jul-02 02:30N 37°16' E 024°56'0 0.0
2020-Jul-02 01:25N 37°16' E 024°56'0 0.0
2020-Jul-01 23:30N 37°16' E 024°56'0 0.0
2020-Jul-01 18:30N 37°16' E 024°56'0 0.0
2020-Jul-01 16:00N 37°16' E 024°56'0 0.0
2020-Jul-01 13:31N 37°16' E 024°56'0 0.0
2020-Jul-01 05:31N 37°16' E 024°56'0 0.0
2020-Jul-01 04:00N 37°16' E 024°56'0 0.0
2020-Jul-01 02:24N 37°16' E 024°56'0 0.0
2020-Jul-01 00:00N 37°16' E 024°56'0 0.0
2020-Jun-30 21:30N 37°16' E 024°56'0 0.0
2020-Jun-30 18:24N 37°16' E 024°56'0 0.0
2020-Jun-30 18:00N 37°16' E 024°56'0 0.0
2020-Jun-30 17:25N 37°16' E 024°56'0 0.0
2020-Jun-30 16:31N 37°16' E 024°56'0 0.0
2020-Jun-30 15:24N 37°16' E 024°56'0 0.0
2020-Jun-30 14:19N 37°16' E 024°56'0 0.0
2020-Jun-30 13:30N 37°16' E 024°56'0 0.0
2020-Jun-30 12:00N 37°16' E 024°56'0 0.0
2020-Jun-30 07:31N 37°16' E 024°56'0 0.0
2020-Jun-30 06:30N 37°16' E 024°56'0 0.0
2020-Jun-30 03:25N 37°16' E 024°56'0 0.0
2020-Jun-30 02:30N 37°16' E 024°56'0 0.0
2020-Jun-30 00:25N 37°16' E 024°56'0 0.0
2020-Jun-29 23:00N 37°16' E 024°56'0 0.0
2020-Jun-29 22:30N 37°16' E 024°56'0 0.0
2020-Jun-29 21:25N 37°16' E 024°56'0 0.0
2020-Jun-29 16:25N 37°16' E 024°56'0 0.1
2020-Jun-29 16:00N 37°16' E 024°56'0 0.0
2020-Jun-29 13:55N 37°16' E 024°56'0 0.0
2020-Jun-29 13:30N 37°16' E 024°56'0 0.0
2020-Jun-29 06:54N 37°16' E 024°56'0 0.0
2020-Jun-29 05:19N 37°16' E 024°56'0 0.0
2020-Jun-29 04:30N 37°16' E 024°56'0 0.0
2020-Jun-29 00:25N 37°16' E 024°56'0 0.0
2020-Jun-28 23:25N 37°16' E 024°56'0 0.0
2020-Jun-28 22:30N 37°16' E 024°56'0 0.0
2020-Jun-28 21:56N 37°16' E 024°56'0 0.0
2020-Jun-28 21:24N 37°16' E 024°56'0 0.0
2020-Jun-28 18:25N 37°16' E 024°56'  

Dump ship's entire track history